createdAt,value
2023-02-22T00:00:59.966Z,-0.59
2023-02-22T00:04:08.033Z,-0.61
2023-02-22T00:07:14.972Z,-0.70
2023-02-22T00:10:21.914Z,-0.75
2023-02-22T00:13:29.337Z,-0.80
2023-02-22T00:16:34.571Z,-0.90
2023-02-22T00:19:40.197Z,-0.86
2023-02-22T00:22:46.486Z,-0.90
2023-02-22T00:25:53.438Z,-0.77
2023-02-22T00:28:59.011Z,-0.80
2023-02-22T00:32:04.268Z,-0.80
2023-02-22T00:35:10.090Z,-0.71
2023-02-22T00:38:19.001Z,-0.82
2023-02-22T00:41:25.583Z,-0.99
2023-02-22T00:44:30.633Z,-0.86
2023-02-22T00:47:36.141Z,-0.85
2023-02-22T00:50:41.272Z,-0.96
2023-02-22T00:53:46.458Z,-0.83
2023-02-22T00:56:53.454Z,-0.93
2023-02-22T00:59:58.650Z,-0.99
2023-02-22T01:03:04.993Z,-1.05
2023-02-22T01:06:12.345Z,-0.93
2023-02-22T01:09:18.892Z,-0.93
2023-02-22T01:12:27.958Z,-1.09
2023-02-22T01:15:33.012Z,-1.02
2023-02-22T01:18:38.447Z,-0.97
2023-02-22T01:21:43.777Z,-0.99
2023-02-22T01:24:49.027Z,-0.99
2023-02-22T01:27:56.402Z,-0.94
2023-02-22T01:31:03.231Z,-0.87
2023-02-22T01:34:08.161Z,-1.00
2023-02-22T01:37:13.706Z,-0.73
2023-02-22T01:40:21.846Z,-0.95
2023-02-22T01:43:30.383Z,-0.86
2023-02-22T01:46:36.163Z,-0.97
2023-02-22T01:49:44.319Z,-0.90
2023-02-22T01:52:49.443Z,-0.81
2023-02-22T01:55:55.571Z,-0.99
2023-02-22T01:59:06.904Z,-1.00
2023-02-22T02:02:14.624Z,-0.92
2023-02-22T02:05:20.010Z,-0.90
2023-02-22T02:08:32.273Z,-0.96
2023-02-22T02:11:40.500Z,-0.74
2023-02-22T02:14:47.801Z,-0.89
2023-02-22T02:17:54.626Z,-0.85
2023-02-22T02:21:32.748Z,-0.83
2023-02-22T02:25:08.962Z,-0.89
2023-02-22T02:28:44.781Z,-0.71
2023-02-22T02:32:27.841Z,-0.86
2023-02-22T02:35:47.073Z,-0.85
2023-02-22T02:38:58.017Z,-0.97
2023-02-22T02:42:07.456Z,-0.93
2023-02-22T02:45:15.510Z,-0.90
2023-02-22T02:48:27.162Z,-1.19
2023-02-22T02:51:36.626Z,-1.15
2023-02-22T02:54:42.178Z,-1.07
2023-02-22T02:57:47.208Z,-1.03
2023-02-22T03:00:55.654Z,-0.96
2023-02-22T03:04:22.249Z,-1.10
2023-02-22T03:07:38.496Z,-1.06
2023-02-22T03:10:52.112Z,-1.02
2023-02-22T03:14:20.571Z,-0.99
2023-02-22T03:17:33.041Z,-1.08
2023-02-22T03:20:46.781Z,-1.18
2023-02-22T03:23:57.838Z,-0.99
2023-02-22T03:27:09.525Z,-1.12
2023-02-22T03:30:25.151Z,-1.26
2023-02-22T03:33:36.363Z,-1.03
2023-02-22T03:36:46.154Z,-1.02
2023-02-22T03:39:55.386Z,-1.17
2023-02-22T03:43:03.635Z,-1.17
2023-02-22T03:46:12.356Z,-1.09
2023-02-22T03:49:25.469Z,-0.97
2023-02-22T03:52:32.831Z,-0.89
2023-02-22T03:55:38.144Z,-0.92
2023-02-22T03:58:46.079Z,-0.90
2023-02-22T04:01:51.397Z,-0.82
2023-02-22T04:04:56.914Z,-0.97
2023-02-22T04:08:03.925Z,-1.17
2023-02-22T04:11:10.200Z,-1.07
2023-02-22T04:14:16.116Z,-1.15
2023-02-22T04:17:22.506Z,-1.10
2023-02-22T04:20:28.042Z,-1.12
2023-02-22T04:23:37.669Z,-1.28
2023-02-22T04:26:43.200Z,-1.26
2023-02-22T04:29:50.124Z,-1.36
2023-02-22T04:32:56.505Z,-1.25
2023-02-22T04:36:01.716Z,-1.28
2023-02-22T04:39:12.533Z,-1.19
2023-02-22T04:42:20.225Z,-1.08
2023-02-22T04:45:25.646Z,-1.04
2023-02-22T04:48:31.012Z,-1.07
2023-02-22T04:51:36.941Z,-1.20
2023-02-22T04:54:48.959Z,-1.04
2023-02-22T04:57:55.452Z,-1.09
2023-02-22T05:01:01.490Z,-1.20
2023-02-22T05:04:07.332Z,-1.07
2023-02-22T05:07:12.700Z,-1.06
2023-02-22T05:10:19.758Z,-1.05
2023-02-22T05:13:25.319Z,-1.03
2023-02-22T05:16:33.960Z,-1.06
2023-02-22T05:19:42.154Z,-1.29
2023-02-22T05:22:47.383Z,-1.27
2023-02-22T05:25:53.829Z,-1.25
2023-02-22T05:28:58.923Z,-1.19
2023-02-22T05:32:04.406Z,-1.18
2023-02-22T05:35:09.910Z,-1.28
2023-02-22T05:38:17.252Z,-1.30
2023-02-22T05:41:23.661Z,-1.19
2023-02-22T05:44:29.516Z,-1.26
2023-02-22T05:47:38.805Z,-1.37
2023-02-22T05:50:44.653Z,-1.31
2023-02-22T05:53:52.160Z,-1.33
2023-02-22T05:56:58.734Z,-1.45
2023-02-22T06:00:05.313Z,-1.27
2023-02-22T06:03:18.057Z,-1.35
2023-02-22T06:06:23.277Z,-1.30
2023-02-22T06:09:28.657Z,-1.31
2023-02-22T06:12:35.707Z,-1.22
2023-02-22T06:15:40.815Z,-1.22
2023-02-22T06:18:45.944Z,-1.41
2023-02-22T06:21:51.946Z,-1.19
2023-02-22T06:24:57.120Z,-1.26
2023-02-22T06:28:03.806Z,-1.26
2023-02-22T06:31:08.940Z,-1.16
2023-02-22T06:34:14.820Z,-1.26
2023-02-22T06:37:20.050Z,-1.21
2023-02-22T06:40:29.519Z,-1.16
2023-02-22T06:43:36.050Z,-1.26
2023-02-22T06:46:41.563Z,-1.31
2023-02-22T06:49:46.770Z,-1.22
2023-02-22T06:52:52.050Z,-1.13
2023-02-22T06:55:57.195Z,-1.01
2023-02-22T06:59:04.417Z,-0.98
2023-02-22T07:02:12.554Z,-0.93
2023-02-22T07:05:19.686Z,-1.07
2023-02-22T07:08:24.806Z,-1.08
2023-02-22T07:11:30.147Z,-1.05
2023-02-22T07:14:36.723Z,-1.04
2023-02-22T07:17:42.511Z,-1.19
2023-02-22T07:20:47.656Z,-1.10
2023-02-22T07:24:00.230Z,-1.01
2023-02-22T07:27:05.832Z,-0.87
2023-02-22T07:30:19.218Z,-0.89
2023-02-22T07:33:24.106Z,-0.90
2023-02-22T07:36:38.060Z,-0.99
2023-02-22T07:39:43.889Z,-1.17
2023-02-22T07:42:56.729Z,-1.20
2023-02-22T07:46:03.798Z,-1.11
2023-02-22T07:49:09.399Z,-1.11
2023-02-22T07:52:14.543Z,-1.04
2023-02-22T07:55:22.273Z,-1.15
2023-02-22T07:58:28.582Z,-0.99
2023-02-22T08:01:37.648Z,-0.90
2023-02-22T08:04:42.551Z,-0.95
2023-02-22T08:07:47.789Z,-0.83
2023-02-22T08:10:53.732Z,-0.75
2023-02-22T08:13:58.927Z,-0.88
2023-02-22T08:17:07.672Z,-0.84
2023-02-22T08:20:14.151Z,-0.81
2023-02-22T08:23:20.632Z,-0.80
2023-02-22T08:26:25.827Z,-0.81
2023-02-22T08:29:33.829Z,-0.90
2023-02-22T08:32:40.429Z,-0.97
2023-02-22T08:35:49.605Z,-0.80
2023-02-22T08:38:55.087Z,-0.67
2023-02-22T08:42:00.314Z,-0.73
2023-02-22T08:45:05.558Z,-0.41
2023-02-22T08:48:17.878Z,-0.35
2023-02-22T08:51:23.147Z,-0.56
2023-02-22T08:54:28.318Z,-0.48
2023-02-22T08:57:33.411Z,-0.45
2023-02-22T09:00:39.679Z,-0.09
2023-02-22T09:03:50.253Z,-0.42
2023-02-22T09:06:55.459Z,-0.35
2023-02-22T09:10:00.849Z,-0.45
2023-02-22T09:13:06.508Z,-0.16
2023-02-22T09:16:13.117Z,-0.55
2023-02-22T09:19:19.965Z,-0.39
2023-02-22T09:22:25.196Z,-0.34
2023-02-22T09:25:30.008Z,-0.52
2023-02-22T09:28:35.409Z,-0.47
2023-02-22T09:31:41.796Z,-0.20
2023-02-22T09:34:49.430Z,-0.12
2023-02-22T09:37:55.271Z,-0.35
2023-02-22T09:41:12.382Z,-0.26
2023-02-22T09:44:22.666Z,-0.03
2023-02-22T09:47:35.497Z,-0.07
2023-02-22T09:50:44.532Z,-0.16
2023-02-22T09:53:51.220Z,-0.02
2023-02-22T09:56:59.534Z,-0.01
2023-02-22T10:00:13.722Z,-0.07
2023-02-22T10:03:26.011Z,-0.31
2023-02-22T10:06:33.677Z,-0.46
2023-02-22T10:09:42.779Z,-0.14
2023-02-22T10:12:54.851Z,-0.14
2023-02-22T10:16:06.118Z,-0.40
2023-02-22T10:19:29.343Z,-0.37
2023-02-22T10:22:45.022Z,-0.23
2023-02-22T10:25:57.432Z,-0.07
2023-02-22T10:29:04.956Z,-0.01
2023-02-22T10:32:16.345Z,0.24
2023-02-22T10:35:25.718Z,0.10
2023-02-22T10:38:33.805Z,-0.05
2023-02-22T10:41:42.572Z,-0.03
2023-02-22T10:44:48.251Z,0.35
2023-02-22T10:47:59.126Z,0.14
2023-02-22T10:51:06.703Z,0.14
2023-02-22T10:54:27.256Z,0.05
2023-02-22T10:57:35.225Z,0.48
2023-02-22T11:00:41.273Z,0.57
2023-02-22T11:03:46.838Z,0.67
2023-02-22T11:07:08.307Z,0.50
2023-02-22T11:10:32.678Z,0.52
2023-02-22T11:13:40.537Z,0.45
2023-02-22T11:16:48.557Z,0.13
2023-02-22T11:19:53.675Z,0.14
2023-02-22T11:23:01.202Z,-0.03
2023-02-22T11:26:13.513Z,-0.22
2023-02-22T11:29:32.063Z,-0.14
2023-02-22T11:32:37.738Z,-0.12
2023-02-22T11:35:53.336Z,-0.23
2023-02-22T11:39:00.778Z,-0.19
2023-02-22T11:42:23.978Z,-0.25
2023-02-22T11:45:29.880Z,-0.28
2023-02-22T11:48:39.191Z,-0.04
2023-02-22T11:51:55.123Z,0.10
2023-02-22T11:55:10.849Z,0.02
2023-02-22T11:58:32.106Z,-0.01
2023-02-22T12:01:43.051Z,0.25
2023-02-22T12:05:16.022Z,0.13
2023-02-22T12:08:33.712Z,0.30
2023-02-22T12:11:45.526Z,0.33
2023-02-22T12:14:56.561Z,0.38
2023-02-22T12:18:07.374Z,0.22
2023-02-22T12:21:17.073Z,-0.05
2023-02-22T12:24:23.938Z,0.25
2023-02-22T12:27:32.153Z,0.23
2023-02-22T12:30:41.076Z,0.31
2023-02-22T12:33:53.016Z,0.26
2023-02-22T12:37:02.690Z,0.21
2023-02-22T12:40:13.643Z,0.36
2023-02-22T12:43:22.555Z,0.21
2023-02-22T12:46:33.926Z,0.17
2023-02-22T12:49:42.974Z,0.35
2023-02-22T12:52:53.457Z,0.46
2023-02-22T12:56:02.010Z,0.36
2023-02-22T12:59:12.646Z,0.38
2023-02-22T13:02:22.479Z,0.51
2023-02-22T13:05:29.020Z,0.46
2023-02-22T13:08:38.380Z,0.50
2023-02-22T13:11:48.672Z,0.59
2023-02-22T13:15:03.971Z,0.60
2023-02-22T13:18:16.053Z,0.21
2023-02-22T13:21:24.822Z,0.14
2023-02-22T13:24:38.409Z,0.68
2023-02-22T13:27:47.622Z,0.70
2023-02-22T13:31:04.818Z,0.70
2023-02-22T13:34:31.683Z,0.75
2023-02-22T13:38:01.824Z,0.73
2023-02-22T13:41:37.653Z,0.51
2023-02-22T13:44:57.336Z,0.40
2023-02-22T13:48:13.920Z,0.42
2023-02-22T13:51:35.181Z,0.70
2023-02-22T13:54:44.654Z,0.72
2023-02-22T13:57:51.827Z,0.05
2023-02-22T14:00:58.333Z,0.09
2023-02-22T14:04:22.447Z,0.24
2023-02-22T14:07:49.881Z,0.36
2023-02-22T14:10:56.393Z,0.32
2023-02-22T14:14:17.824Z,0.38
2023-02-22T14:17:27.732Z,0.48
2023-02-22T14:20:36.908Z,0.59
2023-02-22T14:23:44.105Z,0.32
2023-02-22T14:27:01.841Z,0.34
2023-02-22T14:30:07.720Z,0.55
2023-02-22T14:33:52.180Z,0.21
2023-02-22T14:37:01.081Z,0.38
2023-02-22T14:40:15.626Z,-0.03
2023-02-22T14:43:22.607Z,-0.14
2023-02-22T14:46:30.459Z,-0.06
2023-02-22T14:49:44.404Z,0.06
2023-02-22T14:52:50.073Z,0.07
2023-02-22T14:56:02.670Z,0.08
2023-02-22T14:59:17.037Z,0.00
2023-02-22T15:02:26.243Z,-0.05
2023-02-22T15:05:38.555Z,-0.30
2023-02-22T15:08:48.816Z,-0.34
2023-02-22T15:11:56.697Z,-0.36
2023-02-22T15:15:22.283Z,-0.24
2023-02-22T15:18:30.596Z,-0.13
2023-02-22T15:21:36.449Z,-0.31
2023-02-22T15:24:44.235Z,-0.27
2023-02-22T15:27:50.802Z,-0.37
2023-02-22T15:31:17.821Z,-0.40
2023-02-22T15:34:30.431Z,-0.49
2023-02-22T15:37:35.878Z,-0.46
2023-02-22T15:40:43.382Z,-0.39
2023-02-22T15:44:07.900Z,-0.61
2023-02-22T15:47:21.035Z,-0.66
2023-02-22T15:50:27.947Z,-0.56
2023-02-22T15:53:40.546Z,-0.60
2023-02-22T15:56:51.668Z,-0.58
2023-02-22T15:59:59.523Z,-0.62
2023-02-22T16:03:05.889Z,-0.61
2023-02-22T16:06:14.947Z,-0.64
2023-02-22T16:09:23.175Z,-0.57
2023-02-22T16:12:29.963Z,-0.60
2023-02-22T16:15:37.183Z,-0.60
2023-02-22T16:18:42.846Z,-0.50
2023-02-22T16:21:56.797Z,-0.43
2023-02-22T16:25:27.488Z,-0.62
2023-02-22T16:28:35.623Z,-0.65
2023-02-22T16:31:42.593Z,-0.52
2023-02-22T16:34:52.109Z,-0.66
2023-02-22T16:38:00.730Z,-0.37
2023-02-22T16:41:07.562Z,-0.44
2023-02-22T16:44:14.657Z,-0.47
2023-02-22T16:47:21.709Z,-0.41
2023-02-22T16:50:26.964Z,-0.45
2023-02-22T16:53:34.090Z,-0.61
2023-02-22T16:56:40.174Z,-0.50
2023-02-22T16:59:47.641Z,-0.53
2023-02-22T17:02:54.185Z,-0.37
2023-02-22T17:05:59.578Z,-0.57
2023-02-22T17:09:04.716Z,-0.45
2023-02-22T17:12:10.871Z,-0.44
2023-02-22T17:15:23.083Z,-0.56
2023-02-22T17:18:34.056Z,-0.51
2023-02-22T17:21:39.989Z,-0.59
2023-02-22T17:24:45.039Z,-0.70
2023-02-22T17:27:50.384Z,-0.62
2023-02-22T17:30:56.256Z,-0.63
2023-02-22T17:34:04.173Z,-0.52
2023-02-22T17:37:09.385Z,-0.73
2023-02-22T17:40:15.472Z,-0.43
2023-02-22T17:43:21.457Z,-0.40
2023-02-22T17:46:26.820Z,-0.66
2023-02-22T17:49:32.976Z,-0.49
2023-02-22T17:52:38.629Z,-0.47
2023-02-22T17:55:44.410Z,-0.64
2023-02-22T17:58:50.914Z,-0.58
2023-02-22T18:01:56.079Z,-0.49
2023-02-22T18:05:03.656Z,-0.46
2023-02-22T18:08:08.864Z,-0.42
2023-02-22T18:11:15.092Z,-0.40
2023-02-22T18:14:21.808Z,-0.60
2023-02-22T18:17:27.026Z,-0.70
2023-02-22T18:20:38.362Z,-0.59
2023-02-22T18:23:44.876Z,-0.68
2023-02-22T18:26:50.711Z,-0.70
2023-02-22T18:29:56.056Z,-0.60
2023-02-22T18:33:00.886Z,-0.76
2023-02-22T18:36:11.206Z,-0.68
2023-02-22T18:39:17.502Z,-0.60
2023-02-22T18:42:23.508Z,-0.65
2023-02-22T18:45:28.554Z,-0.61
2023-02-22T18:48:33.709Z,-0.59
2023-02-22T18:51:43.661Z,-0.66
2023-02-22T18:54:48.938Z,-0.68
2023-02-22T18:57:55.757Z,-0.63
2023-02-22T19:01:01.290Z,-0.69
2023-02-22T19:04:06.883Z,-0.46
2023-02-22T19:07:17.873Z,-0.55
2023-02-22T19:10:26.258Z,-0.49
2023-02-22T19:13:32.857Z,-0.71
2023-02-22T19:16:38.366Z,-0.57
2023-02-22T19:19:43.592Z,-0.62
2023-02-22T19:22:50.855Z,-0.47
2023-02-22T19:25:56.257Z,-0.52
2023-02-22T19:29:05.456Z,-0.60
2023-02-22T19:32:17.362Z,-0.54
2023-02-22T19:35:27.251Z,-0.64
2023-02-22T19:38:33.582Z,-0.68
2023-02-22T19:41:39.355Z,-0.66
2023-02-22T19:44:44.518Z,-0.69
2023-02-22T19:47:50.785Z,-0.63
2023-02-22T19:51:00.533Z,-0.69
2023-02-22T19:54:13.563Z,-0.58
2023-02-22T19:57:20.306Z,-0.65
2023-02-22T20:00:27.908Z,-0.62
2023-02-22T20:03:35.833Z,-0.65
2023-02-22T20:06:42.807Z,-0.69
2023-02-22T20:09:50.021Z,-0.65
2023-02-22T20:12:57.734Z,-0.48
2023-02-22T20:16:05.166Z,-0.46
2023-02-22T20:19:11.096Z,-0.46
2023-02-22T20:22:16.511Z,-0.42
2023-02-22T20:25:23.191Z,-0.49
2023-02-22T20:28:29.707Z,-0.55
2023-02-22T20:31:37.478Z,-0.37
2023-02-22T20:34:46.179Z,-0.44
2023-02-22T20:37:51.333Z,-0.30
2023-02-22T20:40:58.152Z,-0.35
2023-02-22T20:44:07.102Z,-0.32
2023-02-22T20:47:12.683Z,-0.40
2023-02-22T20:50:17.825Z,-0.40
2023-02-22T20:53:23.683Z,-0.40
2023-02-22T20:56:32.390Z,-0.35
2023-02-22T20:59:37.218Z,-0.25
2023-02-22T21:02:42.595Z,-0.26
2023-02-22T21:05:48.580Z,-0.29
2023-02-22T21:08:57.113Z,-0.24
2023-02-22T21:12:04.327Z,-0.24
2023-02-22T21:15:11.899Z,-0.25
2023-02-22T21:18:17.158Z,-0.25
2023-02-22T21:21:22.697Z,-0.23
2023-02-22T21:24:28.781Z,-0.14
2023-02-22T21:27:35.288Z,-0.18
2023-02-22T21:30:40.839Z,-0.08
2023-02-22T21:33:46.599Z,-0.26
2023-02-22T21:36:52.596Z,-0.09
2023-02-22T21:39:59.128Z,-0.12
2023-02-22T21:43:05.712Z,-0.08
2023-02-22T21:46:12.540Z,-0.09
2023-02-22T21:49:18.236Z,-0.10
2023-02-22T21:52:25.716Z,-0.03
2023-02-22T21:55:30.968Z,-0.20
2023-02-22T21:58:37.403Z,-0.13
2023-02-22T22:01:47.206Z,-0.04
2023-02-22T22:04:52.472Z,-0.06
2023-02-22T22:07:57.939Z,-0.10
2023-02-22T22:11:05.546Z,-0.02
2023-02-22T22:14:13.575Z,-0.05
2023-02-22T22:17:18.804Z,-0.02
2023-02-22T22:20:23.964Z,0.01
2023-02-22T22:23:30.558Z,0.04
2023-02-22T22:26:35.793Z,0.08
2023-02-22T22:29:43.486Z,0.01
2023-02-22T22:32:51.694Z,-0.05
2023-02-22T22:35:59.141Z,-0.00
2023-02-22T22:39:12.989Z,0.07
2023-02-22T22:42:18.926Z,0.10
2023-02-22T22:45:26.020Z,0.06
2023-02-22T22:48:34.152Z,0.19
2023-02-22T22:51:40.984Z,0.11
2023-02-22T22:54:46.533Z,0.11
2023-02-22T22:57:52.425Z,0.08
2023-02-22T23:01:01.325Z,0.13
2023-02-22T23:04:08.001Z,0.16
2023-02-22T23:07:13.563Z,0.14
2023-02-22T23:10:19.756Z,0.22
2023-02-22T23:13:25.285Z,0.17
2023-02-22T23:16:32.393Z,0.22
2023-02-22T23:19:38.802Z,0.28
2023-02-22T23:22:46.940Z,0.23
2023-02-22T23:25:58.955Z,0.29
2023-02-22T23:29:04.400Z,0.24
2023-02-22T23:32:10.998Z,0.28
2023-02-22T23:35:19.265Z,0.23
2023-02-22T23:38:25.648Z,0.28
2023-02-22T23:41:31.527Z,0.27
2023-02-22T23:44:36.671Z,0.39
2023-02-22T23:47:43.875Z,0.37
2023-02-22T23:50:51.319Z,0.38
2023-02-22T23:53:57.021Z,0.32
2023-02-22T23:57:02.510Z,0.34
